Hovedside
METAR-TAF:

METAR-TAF

Lufthavner :

Acajutla, El Salvador

breddegrad: 13-34N, lengdegrad: 089-50W, høyde over havet: 15 m

Gjeldene værobservasjon

Denne rapporten ble laget for 4 timer og 28 minutter siden, klokken 22:50 UTC
Vind 4 kt fra Øst-sørøst
Temperatur 29°C
Luftfuktighet 84%
Trykk 1008 hPa
Sikt 10 km eller mer
Spredte skyer i en høyde av 2700 ft
Brutte skyer i en høyde av 4700 ft

METAR: MSAC 192250Z 11004KT 9999 SCT027 BKN047 29/26 Q1008 A2978

Tid: 21:18 (03:18 UTC)


TAF: fraværende

Værobservasjoner og værvarsel for over 4000 flyplasser (METAR- og TAF-rapporter).

Tilgjengelige stasjoner er representert av de røde og gule prikkene på kartet.

Hold musepekeren over prikken for å se navnet på stasjonen.

Klikk så for å se værobservasjoner og -varsler.

For å forandre kartet kan du klikke på den grønne knappen med svart kryss for å zoome inn, på den grønne knappen med strek for å zoome ut, eller på de grønne pilene for å se tilstøtende kart.


METAR-TAF: